Time;durP1;ratioP1;P1;durP2;ratioP2;P2;SDS_P1;SDS_P2;PMS_P1;PMS_P2;Temp;Humidity;BMP_temperature;BMP_pressure;BME280_temperature;BME280_humidity;BME280_pressure;Samples;Min_cycle;Max_cycle;Signal;HPM_P1;HPM_P2
2022/03/04 00:01:27;;;;;;;66.63;28.30;;;;;;;-0.20;88.82;100194.09;4199616;28;21660;-68
2022/03/04 00:03:53;;;;;;;69.87;27.87;;;;;;;0.03;88.39;100197.25;4197269;28;21765;-69
2022/03/04 00:06:20;;;;;;;63.00;26.57;;;;;;;0.09;87.73;100191.69;4192488;28;20588;-67
2022/03/04 00:08:46;;;;;;;64.33;27.70;;;;;;;0.12;87.55;100199.38;4206623;28;20268;-67
2022/03/04 00:11:17;;;;;;;69.57;27.93;;;;;;;0.08;87.39;100197.84;4181744;28;22143;-67
2022/03/04 00:13:44;;;;;;;70.30;28.20;;;;;;;0.14;87.35;100193.13;4200459;28;20243;-67
2022/03/04 00:16:10;;;;;;;70.20;27.73;;;;;;;0.15;87.18;100193.97;4185120;28;20271;-66
2022/03/04 00:18:37;;;;;;;64.83;26.70;;;;;;;0.01;87.78;100192.09;4197187;28;22116;-68
2022/03/04 00:21:04;;;;;;;67.13;26.83;;;;;;;0.05;88.02;100198.88;4191893;28;20224;-65
2022/03/04 00:23:31;;;;;;;66.00;26.23;;;;;;;0.19;87.31;100192.88;4203167;28;22077;-68
2022/03/04 00:25:59;;;;;;;62.00;26.30;;;;;;;0.22;87.72;100192.69;4193004;28;21470;-67
2022/03/04 00:28:25;;;;;;;60.83;26.50;;;;;;;0.30;87.43;100184.41;4197746;28;21909;-67
2022/03/04 00:30:52;;;;;;;66.93;27.07;;;;;;;0.13;87.47;100185.34;4218064;28;21848;-69
2022/03/04 00:33:18;;;;;;;65.10;25.30;;;;;;;0.19;87.25;100185.88;4215366;28;20233;-67
2022/03/04 00:35:45;;;;;;;63.60;26.13;;;;;;;0.09;87.77;100189.06;4183662;28;20228;-68
2022/03/04 00:38:12;;;;;;;62.27;26.13;;;;;;;0.12;87.50;100189.75;4192709;28;20771;-68
2022/03/04 00:40:38;;;;;;;64.73;25.50;;;;;;;0.26;87.87;100191.59;4191851;28;20237;-68
2022/03/04 00:43:05;;;;;;;55.27;26.00;;;;;;;0.19;87.45;100172.78;4203939;28;21829;-67
2022/03/04 00:45:31;;;;;;;60.87;26.37;;;;;;;0.17;87.74;100186.88;4197021;28;20244;-66
2022/03/04 00:47:58;;;;;;;58.77;24.83;;;;;;;0.13;87.95;100185.34;4201003;28;20397;-67
2022/03/04 00:50:24;;;;;;;68.40;24.83;;;;;;;0.26;87.73;100190.72;4191062;28;22910;-68
2022/03/04 00:52:51;;;;;;;55.80;24.97;;;;;;;0.36;87.01;100186.69;4201542;28;20436;-68
2022/03/04 00:55:17;;;;;;;59.30;24.80;;;;;;;0.34;86.86;100181.53;4197326;28;20872;-67
2022/03/04 00:57:44;;;;;;;57.57;25.20;;;;;;;0.24;87.12;100182.16;4191738;28;20372;-67
2022/03/04 01:00:11;;;;;;;61.87;25.57;;;;;;;0.20;87.57;100184.91;4192385;28;20226;-66
2022/03/04 01:02:37;;;;;;;55.87;25.07;;;;;;;0.37;87.42;100183.97;4196992;28;20492;-68
2022/03/04 01:05:04;;;;;;;59.43;24.67;;;;;;;0.37;87.27;100181.34;4189433;28;20228;-67
2022/03/04 01:07:31;;;;;;;56.00;24.27;;;;;;;0.32;87.21;100179.94;4185708;28;20248;-69
2022/03/04 01:09:58;;;;;;;61.80;25.70;;;;;;;0.13;87.49;100180.13;4218102;28;21826;-66
2022/03/04 01:12:24;;;;;;;55.27;24.23;;;;;;;0.23;88.12;100175.22;4191452;28;20763;-68
2022/03/04 01:14:53;;;;;;;59.23;24.43;;;;;;;0.30;88.01;100177.41;4194230;28;21704;-68
2022/03/04 01:17:20;;;;;;;55.57;23.70;;;;;;;0.24;87.95;100176.94;4186445;28;20400;-68
2022/03/04 01:19:46;;;;;;;62.63;25.90;;;;;;;0.29;88.25;100178.34;4176075;28;20326;-68
2022/03/04 01:22:13;;;;;;;59.20;25.23;;;;;;;0.15;88.22;100183.50;4182804;28;21224;-67
2022/03/04 01:24:40;;;;;;;64.07;25.60;;;;;;;0.18;88.57;100180.72;4191957;28;20232;-68
2022/03/04 01:27:07;;;;;;;53.50;23.67;;;;;;;0.28;88.20;100175.81;4176561;28;20237;-67
2022/03/04 01:29:33;;;;;;;55.87;24.33;;;;;;;0.36;88.36;100182.28;4175225;28;20227;-67
2022/03/04 01:32:00;;;;;;;58.00;24.77;;;;;;;0.47;87.80;100178.22;4171375;28;21676;-67
2022/03/04 01:34:26;;;;;;;55.20;24.43;;;;;;;0.32;87.94;100170.31;4180332;28;20292;-69
2022/03/04 01:36:53;;;;;;;59.47;23.17;;;;;;;0.33;88.06;100176.41;4196065;28;21165;-67
2022/03/04 01:39:20;;;;;;;56.93;24.23;;;;;;;0.23;88.45;100186.53;4191036;28;20311;-67
2022/03/04 01:41:46;;;;;;;53.87;22.90;;;;;;;0.30;88.04;100179.19;4188333;28;20241;-68
2022/03/04 01:44:13;;;;;;;58.60;24.10;;;;;;;0.23;88.99;100186.53;4194160;28;20328;-67
2022/03/04 01:46:39;;;;;;;55.50;24.10;;;;;;;0.00;89.83;100177.34;4192088;28;20514;-69
2022/03/04 01:49:06;;;;;;;54.93;23.20;;;;;;;0.12;90.50;100179.28;4197948;28;20223;-67
2022/03/04 01:51:32;;;;;;;52.10;22.80;;;;;;;0.30;90.14;100176.56;4175251;28;21822;-67
2022/03/04 01:53:59;;;;;;;57.53;24.13;;;;;;;0.30;89.30;100172.16;4207151;28;21875;-67
2022/03/04 01:56:26;;;;;;;58.57;23.90;;;;;;;0.16;89.93;100180.81;4201008;28;20299;-67
2022/03/04 01:58:52;;;;;;;57.00;23.03;;;;;;;0.29;90.02;100175.72;4192854;28;21276;-67
2022/03/04 02:01:19;;;;;;;62.67;24.47;;;;;;;0.29;90.36;100177.50;4185262;28;20652;-75
2022/03/04 02:03:46;;;;;;;58.27;25.00;;;;;;;0.37;90.34;100176.13;4182933;28;21252;-70
2022/03/04 02:06:14;;;;;;;55.73;23.27;;;;;;;0.39;90.48;100179.50;4201980;28;21691;-68
2022/03/04 02:08:41;;;;;;;62.03;24.13;;;;;;;0.47;90.40;100183.47;4173134;28;20237;-69
2022/03/04 02:11:07;;;;;;;61.60;24.93;;;;;;;0.27;90.63;100184.59;4192528;28;20270;-67
2022/03/04 02:13:35;;;;;;;58.20;23.30;;;;;;;0.29;90.93;100173.09;4183396;28;25439;-67
2022/03/04 02:16:01;;;;;;;53.03;23.57;;;;;;;0.26;91.38;100183.75;4200031;28;20366;-67
2022/03/04 02:18:28;;;;;;;51.77;23.10;;;;;;;0.22;92.27;100176.16;4196930;28;20503;-68
2022/03/04 02:20:59;;;;;;;56.70;22.77;;;;;;;0.23;92.29;100181.28;4190144;28;20390;-71
2022/03/04 02:23:26;;;;;;;54.17;23.80;;;;;;;0.33;92.27;100181.66;4191824;28;20252;-71
2022/03/04 02:25:52;;;;;;;50.93;23.03;;;;;;;0.40;91.75;100182.97;4195925;28;20244;-68
2022/03/04 02:28:21;;;;;;;55.67;22.77;;;;;;;0.50;91.41;100185.91;4180029;28;21843;-69
2022/03/04 02:30:48;;;;;;;55.70;23.23;;;;;;;0.50;91.17;100183.31;4182739;28;20281;-68
2022/03/04 02:33:14;;;;;;;66.37;24.13;;;;;;;0.50;91.34;100176.28;4186195;28;25644;-69
2022/03/04 02:35:41;;;;;;;54.93;23.77;;;;;;;0.50;92.08;100178.91;4185672;28;20303;-68
2022/03/04 02:38:08;;;;;;;49.30;22.23;;;;;;;0.58;92.30;100183.69;4174658;28;23434;-69
2022/03/04 02:40:35;;;;;;;51.73;21.27;;;;;;;0.59;91.86;100188.03;4199052;28;21328;-71
2022/03/04 02:43:01;;;;;;;63.03;25.07;;;;;;;0.66;91.17;100191.97;4185592;28;20335;-68
2022/03/04 02:45:28;;;;;;;56.87;24.13;;;;;;;0.57;92.12;100187.25;4201251;28;23096;-68
2022/03/04 02:47:55;;;;;;;55.23;23.50;;;;;;;0.59;91.92;100186.25;4198702;28;21092;-69
2022/03/04 02:50:21;;;;;;;53.63;23.27;;;;;;;0.67;91.72;100190.19;4193592;28;20707;-67
2022/03/04 02:52:48;;;;;;;62.73;22.83;;;;;;;0.74;91.33;100192.34;4197328;28;20246;-68
2022/03/04 02:55:14;;;;;;;51.93;24.47;;;;;;;0.66;91.85;100185.91;4190767;28;20253;-67
2022/03/04 02:57:43;;;;;;;56.23;23.60;;;;;;;0.74;91.60;100187.13;4182094;28;20238;-69
2022/03/04 03:00:12;;;;;;;47.10;22.90;;;;;;;0.75;91.87;100188.81;4196374;28;20232;-71
2022/03/04 03:02:38;;;;;;;52.40;23.73;;;;;;;0.76;91.40;100187.88;4195378;28;22644;-71
2022/03/04 03:05:05;;;;;;;52.00;23.77;;;;;;;0.71;91.48;100181.22;4189130;28;20669;-67
2022/03/04 03:07:32;;;;;;;51.50;22.93;;;;;;;0.73;91.84;100187.22;4191880;28;20244;-67
2022/03/04 03:09:59;;;;;;;52.57;23.13;;;;;;;0.71;92.00;100189.09;4193230;28;20258;-69
2022/03/04 03:12:26;;;;;;;50.47;21.97;;;;;;;0.70;92.15;100184.75;4186509;28;21815;-69
2022/03/04 03:14:52;;;;;;;54.87;24.53;;;;;;;0.77;91.58;100181.72;4198595;28;20239;-71
2022/03/04 03:17:19;;;;;;;51.80;23.97;;;;;;;0.80;91.38;100184.16;4193825;28;20348;-67
2022/03/04 03:19:45;;;;;;;56.47;23.80;;;;;;;0.80;91.52;100178.91;4191858;28;20232;-69
2022/03/04 03:22:14;;;;;;;53.53;23.83;;;;;;;0.77;91.47;100186.09;4196047;28;20338;-68
2022/03/04 03:24:40;;;;;;;52.40;23.53;;;;;;;0.63;92.57;100181.66;4197518;28;20274;-67
2022/03/04 03:27:07;;;;;;;52.27;22.93;;;;;;;0.69;92.29;100189.16;4199060;28;20591;-68
2022/03/04 03:29:33;;;;;;;57.80;23.27;;;;;;;0.53;93.31;100193.59;4193265;28;21794;-68
2022/03/04 03:32:00;;;;;;;50.83;22.80;;;;;;;0.61;93.46;100196.63;4199893;28;21285;-68
2022/03/04 03:34:27;;;;;;;48.40;22.80;;;;;;;0.65;93.00;100192.03;4198343;28;20234;-67
2022/03/04 03:36:53;;;;;;;50.27;22.77;;;;;;;0.67;93.17;100191.03;4219803;28;20337;-68
2022/03/04 03:39:20;;;;;;;60.20;23.37;;;;;;;0.68;93.34;100202.34;4196466;28;21419;-68
2022/03/04 03:41:46;;;;;;;54.63;23.77;;;;;;;0.61;93.68;100204.50;4194016;28;21180;-67
2022/03/04 03:44:13;;;;;;;52.47;22.60;;;;;;;0.69;93.64;100199.63;4187807;28;20636;-68
2022/03/04 03:46:40;;;;;;;57.43;22.83;;;;;;;0.65;93.77;100205.13;4191576;28;20241;-69
2022/03/04 03:49:06;;;;;;;50.93;21.83;;;;;;;0.66;94.32;100205.06;4187982;28;20382;-69
2022/03/04 03:51:33;;;;;;;50.10;21.57;;;;;;;0.70;94.09;100211.78;4200048;28;22114;-68
2022/03/04 03:54:00;;;;;;;52.17;21.70;;;;;;;0.70;94.40;100205.72;4196102;28;20252;-69
2022/03/04 03:56:26;;;;;;;51.17;21.03;;;;;;;0.77;94.01;100202.69;4190027;28;20224;-69
2022/03/04 03:58:53;;;;;;;50.50;20.27;;;;;;;0.71;94.55;100197.78;4182043;28;20346;-70
2022/03/04 04:01:19;;;;;;;43.50;19.77;;;;;;;0.69;94.50;100204.88;4206763;28;20334;-70
2022/03/04 04:03:46;;;;;;;49.90;20.30;;;;;;;0.72;95.12;100209.09;4198533;28;21066;-71
2022/03/04 04:06:13;;;;;;;51.07;20.50;;;;;;;0.79;94.95;100208.66;4191446;28;20225;-72
2022/03/04 04:08:39;;;;;;;44.87;20.57;;;;;;;0.65;95.20;100205.97;4195497;28;20796;-70
2022/03/04 04:11:06;;;;;;;48.43;19.83;;;;;;;0.69;95.82;100204.03;4191459;28;20380;-73
2022/03/04 04:13:32;;;;;;;41.53;19.07;;;;;;;0.69;95.87;100204.03;4187468;28;20248;-70
2022/03/04 04:15:59;;;;;;;41.93;17.63;;;;;;;0.77;95.94;100209.66;4192051;28;20360;-71
2022/03/04 04:18:25;;;;;;;47.93;19.17;;;;;;;0.85;95.36;100210.09;4184743;28;20237;-72
2022/03/04 04:20:52;;;;;;;40.73;18.57;;;;;;;0.86;95.56;100208.31;4192218;28;22276;-71
2022/03/04 04:23:19;;;;;;;42.60;18.50;;;;;;;0.89;95.49;100216.84;4184688;28;20230;-69
2022/03/04 04:25:45;;;;;;;36.17;17.17;;;;;;;0.93;95.62;100212.25;4202845;28;20245;-70
2022/03/04 04:28:11;;;;;;;39.87;17.73;;;;;;;0.98;95.66;100223.31;4192305;28;20947;-72
2022/03/04 04:30:38;;;;;;;40.17;17.00;;;;;;;0.98;95.31;100223.31;4205434;28;22424;-70
2022/03/04 04:33:04;;;;;;;36.93;16.97;;;;;;;1.00;95.34;100218.81;4195866;28;20668;-71
2022/03/04 04:35:31;;;;;;;37.93;17.20;;;;;;;0.97;94.94;100224.25;4201864;28;20239;-71
2022/03/04 04:37:57;;;;;;;43.37;16.73;;;;;;;0.95;95.36;100228.72;4201304;28;20225;-68
2022/03/04 04:40:24;;;;;;;37.47;16.90;;;;;;;0.95;95.54;100226.13;4193407;28;20244;-69
2022/03/04 04:42:50;;;;;;;39.63;17.77;;;;;;;1.01;95.56;100231.00;4194784;28;21769;-69
2022/03/04 04:45:17;;;;;;;38.30;17.83;;;;;;;1.02;95.30;100225.66;4201649;28;20667;-68
2022/03/04 04:47:43;;;;;;;41.00;16.70;;;;;;;1.09;95.44;100234.00;4204136;28;20312;-70
2022/03/04 04:50:10;;;;;;;44.53;17.33;;;;;;;1.12;94.90;100233.81;4209102;28;20236;-69
2022/03/04 04:52:36;;;;;;;37.17;16.07;;;;;;;1.16;95.08;100235.34;4193566;28;20438;-70
2022/03/04 04:55:03;;;;;;;40.60;17.77;;;;;;;1.08;95.02;100232.34;4174171;28;20652;-67
2022/03/04 04:57:30;;;;;;;39.73;15.90;;;;;;;1.02;95.34;100232.69;4193371;28;20270;-68
2022/03/04 04:59:57;;;;;;;33.70;15.33;;;;;;;0.96;95.58;100235.66;4187847;28;20319;-68
2022/03/04 05:02:23;;;;;;;37.60;15.83;;;;;;;1.12;95.65;100241.69;4205367;28;20355;-69
2022/03/04 05:04:50;;;;;;;37.60;16.10;;;;;;;1.11;94.99;100244.41;4202733;28;20821;-69
2022/03/04 05:07:17;;;;;;;33.07;14.40;;;;;;;1.18;95.02;100238.72;4190052;28;20348;-69
2022/03/04 05:09:43;;;;;;;37.30;15.80;;;;;;;1.16;95.37;100229.25;4191885;28;23219;-70
2022/03/04 05:12:10;;;;;;;32.80;15.07;;;;;;;1.20;95.22;100234.22;4199953;28;20248;-66
2022/03/04 05:14:37;;;;;;;36.00;15.57;;;;;;;1.26;94.88;100227.78;4204287;28;20256;-69
2022/03/04 05:17:04;;;;;;;40.17;15.83;;;;;;;1.23;95.23;100238.44;4219296;28;20303;-66
2022/03/04 05:19:31;;;;;;;32.60;14.73;;;;;;;1.22;95.33;100244.63;4189388;28;20364;-70
2022/03/04 05:21:57;;;;;;;32.03;14.47;;;;;;;1.26;95.44;100243.50;4192643;28;26411;-69
2022/03/04 05:24:24;;;;;;;34.23;14.60;;;;;;;1.26;95.45;100247.00;4190919;28;20303;-68
2022/03/04 05:26:50;;;;;;;35.53;15.67;;;;;;;1.18;95.87;100243.97;4208451;28;20520;-69
2022/03/04 05:29:17;;;;;;;32.60;14.83;;;;;;;1.27;96.13;100243.41;4191849;28;20988;-68
2022/03/04 05:31:44;;;;;;;32.33;14.50;;;;;;;1.31;95.93;100244.09;4190753;28;20264;-68
2022/03/04 05:34:12;;;;;;;34.80;15.40;;;;;;;1.26;96.08;100254.84;4202636;28;20241;-68
2022/03/04 05:36:39;;;;;;;33.40;14.80;;;;;;;1.16;96.94;100256.31;4185379;28;22098;-66
2022/03/04 05:39:06;;;;;;;32.17;14.33;;;;;;;1.20;96.81;100263.06;4194546;28;20237;-71
2022/03/04 05:41:32;;;;;;;44.53;15.63;;;;;;;0.96;97.84;100259.22;4188210;28;20651;-68
2022/03/04 05:43:59;;;;;;;37.13;16.67;;;;;;;0.97;98.66;100260.94;4191612;28;20241;-69
2022/03/04 05:46:26;;;;;;;33.80;13.93;;;;;;;0.97;98.97;100264.38;4191877;28;21998;-68
2022/03/04 05:48:53;;;;;;;39.17;15.30;;;;;;;0.95;99.43;100268.88;4195140;28;20237;-67
2022/03/04 05:51:19;;;;;;;45.40;15.77;;;;;;;0.99;99.27;100269.56;4192376;28;20235;-70
2022/03/04 05:53:46;;;;;;;35.50;14.30;;;;;;;1.01;99.54;100273.75;4204535;28;22606;-66
2022/03/04 05:56:15;;;;;;;37.67;16.57;;;;;;;1.05;99.77;100277.03;4195674;28;22483;-66
2022/03/04 05:58:42;;;;;;;43.17;16.50;;;;;;;1.08;99.46;100281.25;4195625;28;25844;-66
2022/03/04 06:01:08;;;;;;;38.13;15.60;;;;;;;0.89;99.80;100278.84;4196746;28;23512;-69
2022/03/04 06:03:36;;;;;;;42.43;16.57;;;;;;;0.91;100.00;100284.84;4197353;28;20528;-69
2022/03/04 06:06:03;;;;;;;40.13;18.00;;;;;;;1.04;100.00;100284.06;4235481;28;20372;-72
2022/03/04 06:08:30;;;;;;;34.43;16.77;;;;;;;0.95;100.00;100284.59;4208309;28;20323;-73
2022/03/04 06:10:58;;;;;;;38.83;16.67;;;;;;;0.99;100.00;100285.28;4217781;28;22467;-72
2022/03/04 06:13:24;;;;;;;40.77;17.60;;;;;;;0.96;100.00;100288.03;4208872;28;20240;-66
2022/03/04 06:15:51;;;;;;;43.77;17.50;;;;;;;0.96;100.00;100291.53;4205160;28;22045;-66
2022/03/04 06:18:18;;;;;;;43.20;16.80;;;;;;;1.03;100.00;100294.63;4211830;28;20780;-66
2022/03/04 06:20:45;;;;;;;35.03;16.50;;;;;;;1.02;100.00;100290.31;4216873;28;21833;-66
2022/03/04 06:23:13;;;;;;;39.83;17.60;;;;;;;1.12;100.00;100295.88;4200584;28;20237;-66
2022/03/04 06:25:39;;;;;;;35.50;17.20;;;;;;;1.12;100.00;100306.34;4197160;28;21803;-66
2022/03/04 06:28:06;;;;;;;34.80;16.53;;;;;;;1.14;100.00;100304.50;4214212;28;20824;-67
2022/03/04 06:30:36;;;;;;;38.80;17.03;;;;;;;1.12;100.00;100312.44;4179318;28;20233;-69
2022/03/04 06:35:49;;;;;;;43.33;18.90;;;;;;;1.07;100.00;100317.09;4214301;28;23136;-67
2022/03/04 06:38:17;;;;;;;38.57;17.07;;;;;;;1.14;100.00;100315.81;4198138;28;20268;-68
2022/03/04 06:40:45;;;;;;;41.50;16.53;;;;;;;1.13;100.00;100318.53;4190416;28;21812;-67
2022/03/04 06:43:12;;;;;;;39.07;16.43;;;;;;;1.15;100.00;100322.75;4203158;28;20248;-65
2022/03/04 06:45:42;;;;;;;43.33;18.20;;;;;;;1.09;100.00;100325.72;4210813;28;26514;-69
2022/03/04 06:48:10;;;;;;;40.17;17.17;;;;;;;1.09;100.00;100333.59;4204144;28;22071;-66
2022/03/04 06:50:37;;;;;;;37.27;17.23;;;;;;;1.14;100.00;100339.41;4215347;28;20233;-68
2022/03/04 06:53:03;;;;;;;33.77;16.37;;;;;;;1.10;100.00;100340.53;4213133;28;22322;-66
2022/03/04 06:55:30;;;;;;;36.53;16.37;;;;;;;0.99;100.00;100332.44;4221401;28;21012;-65
2022/03/04 06:57:57;;;;;;;31.97;16.87;;;;;;;1.07;100.00;100332.81;4195158;28;20232;-68
2022/03/04 07:00:25;;;;;;;34.93;17.20;;;;;;;1.02;100.00;100327.84;4203403;28;20229;-66
2022/03/04 07:02:52;;;;;;;32.13;15.50;;;;;;;1.03;100.00;100333.91;4197139;28;20989;-67
2022/03/04 07:05:23;;;;;;;29.23;15.20;;;;;;;1.10;100.00;100337.91;4199678;28;20276;-67
2022/03/04 07:07:50;;;;;;;31.87;15.30;;;;;;;1.09;100.00;100338.81;4192942;28;20243;-67
2022/03/04 07:10:17;;;;;;;31.33;14.20;;;;;;;1.12;100.00;100337.81;4203362;28;20444;-72
2022/03/04 07:12:43;;;;;;;33.73;14.67;;;;;;;1.10;100.00;100339.66;4194375;28;20258;-67
2022/03/04 07:15:10;;;;;;;30.83;13.93;;;;;;;1.14;100.00;100341.19;4203456;28;20245;-67
2022/03/04 07:17:40;;;;;;;30.67;14.87;;;;;;;1.11;100.00;100336.13;4213684;28;20235;-67
2022/03/04 07:20:08;;;;;;;34.40;14.13;;;;;;;1.16;100.00;100340.16;4218635;28;21378;-69
2022/03/04 07:22:38;;;;;;;30.97;14.67;;;;;;;1.08;100.00;100346.75;4208095;28;20298;-69
2022/03/04 07:25:07;;;;;;;30.40;15.27;;;;;;;1.02;100.00;100342.72;4187655;28;20461;-69
2022/03/04 07:27:34;;;;;;;30.97;15.03;;;;;;;1.15;100.00;100354.22;4188699;28;21057;-74
2022/03/04 07:30:03;;;;;;;31.07;14.80;;;;;;;1.19;100.00;100353.09;4197294;28;20409;-69
2022/03/04 07:32:31;;;;;;;29.43;14.93;;;;;;;1.21;100.00;100348.59;4216572;28;20374;-66
2022/03/04 07:34:58;;;;;;;34.60;14.83;;;;;;;1.23;100.00;100352.00;4185529;28;21378;-67
2022/03/04 07:37:25;;;;;;;33.30;14.70;;;;;;;1.21;100.00;100355.63;4197996;28;21838;-67
2022/03/04 07:39:52;;;;;;;34.03;15.27;;;;;;;1.31;100.00;100348.94;4225241;28;20420;-65
2022/03/04 07:42:19;;;;;;;34.73;15.23;;;;;;;1.30;100.00;100352.47;4203328;28;20232;-69
2022/03/04 07:44:46;;;;;;;38.00;17.20;;;;;;;1.27;100.00;100358.75;4192544;28;21523;-72
2022/03/04 07:47:13;;;;;;;31.53;14.90;;;;;;;1.35;100.00;100360.09;4188887;28;20300;-67
2022/03/04 07:49:42;;;;;;;32.30;15.87;;;;;;;1.42;100.00;100369.28;4205520;28;20245;-64
2022/03/04 07:52:11;;;;;;;40.10;16.57;;;;;;;1.51;100.00;100367.91;4203909;28;20998;-65
2022/03/04 07:54:37;;;;;;;33.77;16.63;;;;;;;1.53;100.00;100363.44;4210536;28;20243;-67
2022/03/04 07:57:04;;;;;;;36.10;16.60;;;;;;;1.66;100.00;100361.75;4185442;28;21310;-67
2022/03/04 07:59:31;;;;;;;40.67;18.17;;;;;;;1.65;100.00;100368.78;4206535;28;20339;-68
2022/03/04 08:01:57;;;;;;;40.70;17.00;;;;;;;1.71;100.00;100378.09;4195931;28;20229;-67
2022/03/04 08:04:25;;;;;;;35.10;16.77;;;;;;;1.69;100.00;100375.56;4214362;28;21314;-67
2022/03/04 08:06:51;;;;;;;35.03;17.03;;;;;;;1.63;100.00;100370.66;4201878;28;20250;-67
2022/03/04 08:09:18;;;;;;;34.47;17.30;;;;;;;1.72;100.00;100374.53;4212038;28;21216;-67
2022/03/04 08:11:46;;;;;;;35.20;16.57;;;;;;;1.74;99.99;100377.06;4195731;28;22249;-69
2022/03/04 08:14:14;;;;;;;37.47;16.27;;;;;;;1.74;99.87;100371.84;4208362;28;20240;-70
2022/03/04 08:16:40;;;;;;;38.20;17.00;;;;;;;1.82;98.99;100380.91;4214961;28;21168;-68
2022/03/04 08:19:07;;;;;;;31.23;15.50;;;;;;;1.92;99.21;100378.63;4217006;28;20311;-67
2022/03/04 08:21:34;;;;;;;40.00;16.97;;;;;;;1.90;99.50;100383.94;4203243;28;20288;-68
2022/03/04 08:24:00;;;;;;;37.43;17.47;;;;;;;1.95;98.54;100386.31;4215352;28;21733;-65
2022/03/04 08:26:27;;;;;;;35.40;17.20;;;;;;;1.81;99.02;100387.13;4204488;28;21736;-66
2022/03/04 08:28:59;;;;;;;33.87;15.93;;;;;;;1.79;98.76;100390.75;4196842;28;21814;-69
2022/03/04 08:31:25;;;;;;;33.63;15.53;;;;;;;1.82;99.19;100385.31;4195309;28;20229;-68
2022/03/04 08:33:52;;;;;;;31.70;15.17;;;;;;;1.71;99.51;100393.84;4216763;28;21505;-67
2022/03/04 08:36:18;;;;;;;40.47;17.07;;;;;;;1.82;99.52;100396.66;4188904;28;20248;-68
2022/03/04 08:38:46;;;;;;;36.33;16.43;;;;;;;1.81;99.73;100402.00;4219152;28;20289;-69
2022/03/04 08:41:16;;;;;;;31.53;16.10;;;;;;;1.86;99.99;100399.97;4195192;28;21477;-66
2022/03/04 08:43:43;;;;;;;37.30;16.63;;;;;;;1.88;99.52;100405.97;4204579;28;20429;-68
2022/03/04 08:46:13;;;;;;;35.27;17.37;;;;;;;1.92;99.71;100404.84;4221102;28;20235;-67
2022/03/04 08:48:41;;;;;;;40.47;17.00;;;;;;;2.04;99.07;100409.38;4209711;28;20239;-72
2022/03/04 08:51:07;;;;;;;37.77;16.30;;;;;;;2.13;98.33;100409.75;4211424;28;20904;-68
2022/03/04 08:53:35;;;;;;;31.47;15.57;;;;;;;2.20;98.37;100411.06;4223774;28;20457;-69
2022/03/04 08:56:03;;;;;;;32.97;15.50;;;;;;;2.04;98.43;100412.00;4212956;28;20343;-68
2022/03/04 08:58:29;;;;;;;29.97;14.37;;;;;;;2.09;97.89;100414.34;4213898;28;21700;-71
2022/03/04 09:00:56;;;;;;;26.83;14.03;;;;;;;2.07;97.91;100413.59;4197029;28;20239;-72
2022/03/04 09:03:24;;;;;;;29.30;14.77;;;;;;;2.10;97.79;100422.13;4180284;28;20944;-70
2022/03/04 09:05:51;;;;;;;27.93;13.40;;;;;;;2.26;98.22;100421.22;4194713;28;20238;-70
2022/03/04 09:08:17;;;;;;;26.43;13.17;;;;;;;2.26;98.25;100418.59;4251669;28;20345;-74
2022/03/04 09:10:44;;;;;;;27.83;13.67;;;;;;;2.22;98.11;100417.06;4197706;28;20232;-71
2022/03/04 09:13:10;;;;;;;29.97;13.37;;;;;;;2.31;97.82;100414.72;4208515;28;20233;-74
2022/03/04 09:15:37;;;;;;;25.83;12.30;;;;;;;2.29;97.25;100410.50;4218284;28;20745;-72
2022/03/04 09:18:04;;;;;;;23.70;11.97;;;;;;;2.36;97.00;100417.09;4202294;28;20228;-73
2022/03/04 09:20:33;;;;;;;24.60;12.40;;;;;;;2.40;97.01;100415.13;4211756;28;20950;-71
2022/03/04 09:23:00;;;;;;;26.40;12.47;;;;;;;2.44;96.79;100425.34;4192739;28;20257;-71
2022/03/04 09:25:27;;;;;;;23.50;12.40;;;;;;;2.37;96.83;100426.66;4213292;28;22239;-72
2022/03/04 09:27:54;;;;;;;25.27;12.17;;;;;;;2.41;96.90;100425.56;4208800;28;20235;-71
2022/03/04 09:30:21;;;;;;;23.43;11.73;;;;;;;2.40;96.91;100425.63;4213381;28;22621;-74
2022/03/04 09:32:48;;;;;;;22.13;10.10;;;;;;;2.31;97.13;100427.03;4201326;28;20663;-75
2022/03/04 09:35:16;;;;;;;22.30;10.23;;;;;;;2.42;96.87;100426.38;4191589;28;20249;-73
2022/03/04 09:37:50;;;;;;;19.73;10.40;;;;;;;2.33;96.19;100433.03;4216415;28;20237;-72
2022/03/04 09:40:17;;;;;;;20.00;10.20;;;;;;;2.42;96.44;100427.22;4224368;28;21088;-74
2022/03/04 09:42:44;;;;;;;19.67;10.30;;;;;;;2.39;96.57;100432.69;4223001;28;20292;-75
2022/03/04 09:45:11;;;;;;;21.10;9.80;;;;;;;2.31;96.61;100432.28;4189964;28;20236;-75
2022/03/04 09:47:37;;;;;;;20.07;9.87;;;;;;;2.19;96.62;100431.22;4196660;28;22675;-74
2022/03/04 09:50:05;;;;;;;18.73;10.57;;;;;;;2.17;96.83;100442.75;4224061;28;23154;-73
2022/03/04 09:52:32;;;;;;;26.20;12.90;;;;;;;2.08;97.71;100437.13;4190334;28;20233;-70
2022/03/04 09:54:59;;;;;;;23.00;11.23;;;;;;;2.03;98.33;100440.94;4202229;28;20234;-72
2022/03/04 09:57:25;;;;;;;18.77;9.47;;;;;;;2.02;97.87;100437.50;4213140;28;20310;-73
2022/03/04 09:59:52;;;;;;;20.50;10.23;;;;;;;2.06;98.45;100440.75;4212314;28;21103;-60
2022/03/04 10:02:20;;;;;;;22.37;10.50;;;;;;;2.18;98.88;100440.06;4243566;28;20711;-55
2022/03/04 10:04:56;;;;;;;19.17;10.20;;;;;;;2.42;98.50;100434.28;4196071;28;20229;-55
2022/03/04 10:07:23;;;;;;;20.63;10.20;;;;;;;2.57;97.44;100440.34;4197878;28;20280;-73
2022/03/04 10:09:49;;;;;;;23.57;10.50;;;;;;;2.61;96.67;100434.00;4234747;28;20240;-71
2022/03/04 10:12:17;;;;;;;20.90;11.07;;;;;;;2.68;96.47;100435.28;4206839;28;20238;-73
2022/03/04 10:15:06;;;;;;;22.67;11.03;;;;;;;2.68;96.34;100444.03;4216300;28;20266;-71
2022/03/04 10:17:36;;;;;;;22.00;10.27;;;;;;;2.70;96.38;100441.31;4190524;28;20240;-71
2022/03/04 10:20:06;;;;;;;23.70;10.43;;;;;;;2.73;96.13;100439.31;4202980;28;23995;-70
2022/03/04 10:22:45;;;;;;;22.70;9.97;;;;;;;2.71;95.99;100445.59;4206893;28;21294;-73
2022/03/04 10:25:21;;;;;;;18.37;10.00;;;;;;;2.68;96.25;100444.03;4212898;28;22296;-71
2022/03/04 10:27:48;;;;;;;21.07;10.60;;;;;;;2.68;95.95;100437.94;4195578;28;20243;-70
2022/03/04 10:30:16;;;;;;;20.57;10.67;;;;;;;2.65;96.16;100438.13;4196835;28;20235;-72
2022/03/04 10:32:43;;;;;;;23.27;10.87;;;;;;;2.81;95.82;100436.25;4220855;28;20241;-71
2022/03/04 10:35:11;;;;;;;20.27;10.27;;;;;;;2.75;95.47;100434.81;4218746;28;20384;-68
2022/03/04 10:37:56;;;;;;;21.57;10.33;;;;;;;2.69;95.29;100429.09;4246940;28;20727;-75
2022/03/04 10:40:29;;;;;;;22.10;10.63;;;;;;;2.68;95.93;100432.66;4197060;28;20238;-71
2022/03/04 10:43:01;;;;;;;31.93;12.57;;;;;;;2.72;95.64;100434.19;4247478;28;20228;-70
2022/03/04 10:45:28;;;;;;;21.27;10.20;;;;;;;2.84;95.37;100427.31;4189351;28;21451;-71
2022/03/04 10:48:03;;;;;;;20.00;10.33;;;;;;;2.91;94.82;100432.09;4193897;28;20248;-71
2022/03/04 10:50:42;;;;;;;22.07;10.80;;;;;;;2.70;94.75;100430.78;4201044;28;20256;-71
2022/03/04 10:53:10;;;;;;;19.77;10.47;;;;;;;2.74;94.62;100443.66;4230944;28;23781;-72
2022/03/04 10:55:42;;;;;;;20.23;10.00;;;;;;;2.74;94.60;100434.94;4196220;28;20229;-74
2022/03/04 10:58:14;;;;;;;19.73;9.43;;;;;;;2.57;94.26;100435.09;4216448;28;20259;-72
2022/03/04 11:01:02;;;;;;;16.77;9.00;;;;;;;2.54;95.08;100439.59;4196738;28;20361;-71
2022/03/04 11:03:31;;;;;;;20.20;10.27;;;;;;;2.59;95.18;100434.06;4211225;28;20242;-72
2022/03/04 11:06:00;;;;;;;17.40;9.60;;;;;;;2.68;95.96;100448.44;4224341;28;22516;-73
2022/03/04 11:08:26;;;;;;;21.83;10.27;;;;;;;2.79;95.20;100453.88;4210135;28;22940;-73
2022/03/04 11:10:58;;;;;;;18.13;9.07;;;;;;;2.86;94.74;100451.72;4237723;28;22815;-72
2022/03/04 11:13:25;;;;;;;17.73;9.27;;;;;;;2.86;95.14;100455.19;4205910;28;20248;-72
2022/03/04 11:15:53;;;;;;;18.53;9.47;;;;;;;2.83;95.16;100455.34;4255265;28;20240;-68
2022/03/04 11:18:20;;;;;;;17.23;8.83;;;;;;;2.95;95.07;100462.50;4207356;28;21313;-69
2022/03/04 11:20:52;;;;;;;19.00;9.33;;;;;;;3.03;94.61;100453.28;4284957;28;21837;-71